This is the latest recevied weather packets stored in our database for station/object N7IGG. If no packets are shown the sender has not sent any weather packets the latest 1 day(s).
| Time | Temp. | Humidity | Pressure | Rain* | Wind** | Luminosity | Snow |
|---|---|---|---|---|---|---|---|
| 1778037021 | 16.67° C | 80% | 1015.2 hPa | 0 mm | 0 m/s | 7 W/m² | - |
| 1778036719 | 16.67° C | 80% | 1015.2 hPa | 0 mm | 0.89 m/s, 180° | 11 W/m² | - |
| 1778036416 | 16.67° C | 81% | 1014.9 hPa | 0 mm | 0.45 m/s, 151° | 16 W/m² | - |
| 1778036112 | 16.11° C | 81% | 1015.1 hPa | 0 mm | 0.89 m/s, 147° | 21 W/m² | - |
| 1778035809 | 15.56° C | 82% | 1015 hPa | 0 mm | 0 m/s | 24 W/m² | - |
| 1778035506 | 15.56° C | 82% | 1015 hPa | 0 mm | 0 m/s | 31 W/m² | - |
| 1778035202 | 14.44° C | 81% | 1015 hPa | 0 mm | 0.89 m/s, 164° | 35 W/m² | - |
| 1778034898 | 15.56° C | 79% | 1015 hPa | 0 mm | 1.34 m/s, 198° | 38 W/m² | - |
| 1778034595 | 17.22° C | 75% | 1014.9 hPa | 0 mm | 1.79 m/s, 197° | 44 W/m² | - |
| 1778034293 | 18.33° C | 74% | 1014.8 hPa | 0 mm | 0.89 m/s, 139° | 59 W/m² | - |
| 1778033991 | 18.33° C | 74% | 1014.8 hPa | 0 mm | 0.89 m/s, 175° | 71 W/m² | - |
| 1778033688 | 18.89° C | 74% | 1015 hPa | 0 mm | 0 m/s | 82 W/m² | - |
| 1778033385 | 18.89° C | 75% | 1015 hPa | 0 mm | 0 m/s | 95 W/m² | - |
| 1778033083 | 18.33° C | 74% | 1014.9 hPa | 0 mm | 1.79 m/s, 161° | 106 W/m² | - |
| 1778032780 | 17.78° C | 75% | 1015 hPa | 0 mm | 0.89 m/s, 210° | 114 W/m² | - |
| 1778032477 | 17.78° C | 75% | 1015 hPa | 0 mm | 0.45 m/s, 240° | 125 W/m² | - |
| 1778032174 | 17.78° C | 74% | 1015 hPa | 0 mm | 1.79 m/s, 199° | 137 W/m² | - |
| 1778031871 | 18.33° C | 74% | 1015.1 hPa | 0 mm | 1.79 m/s, 204° | 149 W/m² | - |
| 1778031567 | 18.33° C | 74% | 1015.2 hPa | 0 mm | 0 m/s | 165 W/m² | - |
| 1778031266 | 17.78° C | 74% | 1015.1 hPa | 0 mm | 1.34 m/s, 191° | 174 W/m² | - |
| 1778030961 | 18.33° C | 73% | 1015.1 hPa | 0 mm | 0.89 m/s, 95° | 176 W/m² | - |
| 1778030658 | 18.33° C | 73% | 1015 hPa | 0 mm | 0.89 m/s, 165° | 174 W/m² | - |
| 1778030355 | 17.22° C | 75% | 1015 hPa | 0 mm | 0.45 m/s, 234° | 169 W/m² | - |
| 1778030052 | 17.22° C | 75% | 1015.2 hPa | 0 mm | 3.58 m/s, 210° | 221 W/m² | - |
| 1778029749 | 17.78° C | 75% | 1015.2 hPa | 0 mm | 2.68 m/s, 198° | 230 W/m² | - |
* Rain latest hour (hover to see other rain measurements)
** Current wind speed in m/s (hover to see current wind gust speed)